createdAt,value
2023-04-16T00:01:57.296Z,11.28
2023-04-16T00:04:25.168Z,11.19
2023-04-16T00:06:51.770Z,11.24
2023-04-16T00:09:18.321Z,11.46
2023-04-16T00:11:44.877Z,11.46
2023-04-16T00:14:11.645Z,11.32
2023-04-16T00:16:38.705Z,11.31
2023-04-16T00:19:05.609Z,11.40
2023-04-16T00:21:32.484Z,11.21
2023-04-16T00:23:59.289Z,11.29
2023-04-16T00:26:26.332Z,11.21
2023-04-16T00:28:52.900Z,11.34
2023-04-16T00:31:28.120Z,11.02
2023-04-16T00:33:54.995Z,11.71
2023-04-16T00:36:29.906Z,11.47
2023-04-16T00:38:57.715Z,11.44
2023-04-16T00:41:24.581Z,11.14
2023-04-16T00:43:51.773Z,11.22
2023-04-16T00:46:24.312Z,11.24
2023-04-16T00:48:52.749Z,11.29
2023-04-16T00:51:22.830Z,11.28
2023-04-16T00:53:54.516Z,11.16
2023-04-16T00:56:24.274Z,11.12
2023-04-16T00:58:52.919Z,11.36
2023-04-16T01:01:19.553Z,11.21
2023-04-16T01:03:48.702Z,11.59
2023-04-16T01:06:18.450Z,11.39
2023-04-16T01:08:46.271Z,11.16
2023-04-16T01:11:15.003Z,11.19
2023-04-16T01:13:43.144Z,11.31
2023-04-16T01:16:11.749Z,11.32
2023-04-16T01:18:39.648Z,11.50
2023-04-16T01:21:06.948Z,11.39
2023-04-16T01:23:33.599Z,11.40
2023-04-16T01:26:00.206Z,11.24
2023-04-16T01:28:26.889Z,11.26
2023-04-16T01:30:53.416Z,11.29
2023-04-16T01:33:23.154Z,11.59
2023-04-16T01:35:50.371Z,11.56
2023-04-16T01:38:17.560Z,11.14
2023-04-16T01:40:44.086Z,11.51
2023-04-16T01:43:10.874Z,11.31
2023-04-16T01:45:37.552Z,11.19
2023-04-16T01:48:04.486Z,11.12
2023-04-16T01:50:32.604Z,11.15
2023-04-16T01:52:59.155Z,11.14
2023-04-16T01:55:26.864Z,11.38
2023-04-16T01:57:53.404Z,11.42
2023-04-16T02:00:20.151Z,11.28
2023-04-16T02:02:49.610Z,11.31
2023-04-16T02:05:16.694Z,10.84
2023-04-16T02:07:43.534Z,11.21
2023-04-16T02:10:10.405Z,11.30
2023-04-16T02:12:37.070Z,11.07
2023-04-16T02:15:03.920Z,11.36
2023-04-16T02:17:31.732Z,11.51
2023-04-16T02:19:58.647Z,11.26
2023-04-16T02:22:25.779Z,11.06
2023-04-16T02:24:52.311Z,11.14
2023-04-16T02:27:18.888Z,11.41
2023-04-16T02:29:46.673Z,11.56
2023-04-16T02:32:13.389Z,11.47
2023-04-16T02:34:40.540Z,11.37
2023-04-16T02:37:07.190Z,11.53
2023-04-16T02:39:33.845Z,11.62
2023-04-16T02:42:02.840Z,11.78
2023-04-16T02:44:29.467Z,11.63
2023-04-16T02:46:56.060Z,11.60
2023-04-16T02:49:22.822Z,11.50
2023-04-16T02:51:49.420Z,11.49
2023-04-16T02:54:16.177Z,11.59
2023-04-16T02:56:44.241Z,11.81
2023-04-16T02:59:11.054Z,11.51
2023-04-16T03:01:37.830Z,11.28
2023-04-16T03:04:04.981Z,11.57
2023-04-16T03:06:32.108Z,11.52
2023-04-16T03:08:59.318Z,11.58
2023-04-16T03:11:25.878Z,11.44
2023-04-16T03:13:52.534Z,11.63
2023-04-16T03:16:19.700Z,11.44
2023-04-16T03:18:46.438Z,11.26
2023-04-16T03:21:13.428Z,11.48
2023-04-16T03:23:40.021Z,11.33
2023-04-16T03:26:06.619Z,11.54
2023-04-16T03:28:34.696Z,11.08
2023-04-16T03:31:02.556Z,11.26
2023-04-16T03:33:29.245Z,11.48
2023-04-16T03:35:57.430Z,11.24
2023-04-16T03:38:26.531Z,11.18
2023-04-16T03:40:53.066Z,10.99
2023-04-16T03:43:19.868Z,11.24
2023-04-16T03:45:47.359Z,11.31
2023-04-16T03:48:13.982Z,11.15
2023-04-16T03:50:47.297Z,11.17
2023-04-16T03:53:14.262Z,11.04
2023-04-16T03:55:42.042Z,10.95
2023-04-16T03:58:08.966Z,10.68
2023-04-16T04:00:36.337Z,10.72
2023-04-16T04:03:03.153Z,10.84
2023-04-16T04:05:29.890Z,10.81
2023-04-16T04:07:56.472Z,10.96
2023-04-16T04:10:23.031Z,10.66
2023-04-16T04:12:50.153Z,10.69
2023-04-16T04:15:16.906Z,10.64
2023-04-16T04:17:43.804Z,10.95
2023-04-16T04:20:11.262Z,11.15
2023-04-16T04:22:37.835Z,11.15
2023-04-16T04:25:04.577Z,10.91
2023-04-16T04:27:31.452Z,11.19
2023-04-16T04:29:58.228Z,11.42
2023-04-16T04:32:24.967Z,11.12
2023-04-16T04:34:51.608Z,11.53
2023-04-16T04:37:18.208Z,11.30
2023-04-16T04:39:46.286Z,11.45
2023-04-16T04:42:12.962Z,11.46
2023-04-16T04:44:40.513Z,11.23
2023-04-16T04:47:08.159Z,11.22
2023-04-16T04:49:35.070Z,11.35
2023-04-16T04:52:01.999Z,11.51
2023-04-16T04:54:31.346Z,11.43
2023-04-16T04:56:58.531Z,11.39
2023-04-16T04:59:25.849Z,11.13
2023-04-16T05:01:52.530Z,11.35
2023-04-16T05:04:19.668Z,11.42
2023-04-16T05:06:46.390Z,11.80
2023-04-16T05:09:12.981Z,11.58
2023-04-16T05:11:59.442Z,11.78
2023-04-16T05:14:26.055Z,11.90
2023-04-16T05:16:52.695Z,11.65
2023-04-16T05:19:19.341Z,11.77
2023-04-16T05:21:45.890Z,12.05
2023-04-16T05:24:14.752Z,11.91
2023-04-16T05:26:44.096Z,11.97
2023-04-16T05:29:12.245Z,11.98
2023-04-16T05:31:38.967Z,11.59
2023-04-16T05:34:05.479Z,11.67
2023-04-16T05:36:32.150Z,11.99
2023-04-16T05:38:58.708Z,12.28
2023-04-16T05:41:25.759Z,12.27
2023-04-16T05:43:52.292Z,12.30
2023-04-16T05:46:18.955Z,11.91
2023-04-16T05:48:46.059Z,12.00
2023-04-16T05:51:12.622Z,11.69
2023-04-16T05:53:39.165Z,12.11
2023-04-16T05:56:06.110Z,12.30
2023-04-16T05:58:32.648Z,12.06
2023-04-16T06:01:00.059Z,12.09
2023-04-16T06:03:27.071Z,11.92
2023-04-16T06:05:54.935Z,11.97
2023-04-16T06:08:23.024Z,11.91
2023-04-16T06:10:49.857Z,11.91
2023-04-16T06:13:16.556Z,11.70
2023-04-16T06:15:43.156Z,11.91
2023-04-16T06:18:09.776Z,11.52
2023-04-16T06:20:36.829Z,11.69
2023-04-16T06:23:03.395Z,12.05
2023-04-16T06:25:29.926Z,11.53
2023-04-16T06:27:57.415Z,11.92
2023-04-16T06:30:25.648Z,11.59
2023-04-16T06:32:53.249Z,11.62
2023-04-16T06:35:21.380Z,11.79
2023-04-16T06:37:47.982Z,11.53
2023-04-16T06:40:14.659Z,11.40
2023-04-16T06:42:44.138Z,11.27
2023-04-16T06:45:12.277Z,11.28
2023-04-16T06:47:39.344Z,11.56
2023-04-16T06:50:06.925Z,11.55
2023-04-16T06:52:33.861Z,11.64
2023-04-16T06:55:00.610Z,11.66
2023-04-16T06:57:27.178Z,11.71
2023-04-16T06:59:53.839Z,11.26
2023-04-16T07:02:20.509Z,11.26
2023-04-16T07:04:47.046Z,11.49
2023-04-16T07:07:13.639Z,11.05
2023-04-16T07:09:42.250Z,11.35
2023-04-16T07:12:08.892Z,11.11
2023-04-16T07:14:35.472Z,11.35
2023-04-16T07:17:02.206Z,11.42
2023-04-16T07:19:32.409Z,11.52
2023-04-16T07:22:00.296Z,11.56
2023-04-16T07:24:29.012Z,11.26
2023-04-16T07:26:55.573Z,11.37
2023-04-16T07:29:22.165Z,11.79
2023-04-16T07:31:49.536Z,11.78
2023-04-16T07:34:16.438Z,11.72
2023-04-16T07:36:43.141Z,11.83
2023-04-16T07:39:11.863Z,11.74
2023-04-16T07:41:40.678Z,11.81
2023-04-16T07:44:07.854Z,12.00
2023-04-16T07:46:45.536Z,11.98
2023-04-16T07:49:12.848Z,12.03
2023-04-16T07:51:39.594Z,12.06
2023-04-16T07:54:06.269Z,12.17
2023-04-16T07:56:33.143Z,11.82
2023-04-16T07:59:07.899Z,12.23
2023-04-16T08:01:43.084Z,12.17
2023-04-16T08:04:09.992Z,12.07
2023-04-16T08:06:36.816Z,12.23
2023-04-16T08:09:03.681Z,12.26
2023-04-16T08:11:30.200Z,12.06
2023-04-16T08:13:56.846Z,12.16
2023-04-16T08:16:23.424Z,12.39
2023-04-16T08:18:50.377Z,12.63
2023-04-16T08:21:17.255Z,12.78
2023-04-16T08:23:44.320Z,12.63
2023-04-16T08:26:11.892Z,12.47
2023-04-16T08:28:41.535Z,12.83
2023-04-16T08:31:08.148Z,12.96
2023-04-16T08:33:34.693Z,12.88
2023-04-16T08:36:01.233Z,12.74
2023-04-16T08:38:28.090Z,13.01
2023-04-16T08:40:58.270Z,12.63
2023-04-16T08:43:25.156Z,13.28
2023-04-16T08:45:53.738Z,12.79
2023-04-16T08:48:21.959Z,12.79
2023-04-16T08:50:52.755Z,12.96
2023-04-16T08:53:43.233Z,13.30
2023-04-16T08:56:12.529Z,13.29
2023-04-16T08:58:39.671Z,13.33
2023-04-16T09:01:08.117Z,12.89
2023-04-16T09:03:36.654Z,13.05
2023-04-16T09:06:04.439Z,13.12
2023-04-16T09:08:32.239Z,13.12
2023-04-16T09:10:59.587Z,13.19
2023-04-16T09:13:27.848Z,13.33
2023-04-16T09:15:57.332Z,13.43
2023-04-16T09:18:24.767Z,13.68
2023-04-16T09:20:52.309Z,13.87
2023-04-16T09:23:20.959Z,13.99
2023-04-16T09:25:47.620Z,13.90
2023-04-16T09:28:44.271Z,13.69
2023-04-16T09:31:13.783Z,14.41
2023-04-16T09:33:40.863Z,13.94
2023-04-16T09:36:07.746Z,13.79
2023-04-16T09:38:51.482Z,13.66
2023-04-16T09:41:18.388Z,13.83
2023-04-16T09:44:05.111Z,13.81
2023-04-16T09:46:34.679Z,13.76
2023-04-16T09:49:18.447Z,14.14
2023-04-16T09:51:46.973Z,13.86
2023-04-16T09:54:13.805Z,13.93
2023-04-16T09:56:43.020Z,13.92
2023-04-16T09:59:20.383Z,13.70
2023-04-16T10:01:57.275Z,13.84
2023-04-16T10:05:06.660Z,13.82
2023-04-16T10:07:35.966Z,13.94
2023-04-16T10:10:04.078Z,14.00
2023-04-16T10:12:32.665Z,14.07
2023-04-16T10:14:59.337Z,14.05
2023-04-16T10:17:27.842Z,13.84
2023-04-16T10:19:55.089Z,14.34
2023-04-16T10:22:22.744Z,13.71
2023-04-16T10:24:51.373Z,13.85
2023-04-16T10:27:19.317Z,13.46
2023-04-16T10:29:46.700Z,13.23
2023-04-16T10:32:14.592Z,13.49
2023-04-16T10:34:41.590Z,13.64
2023-04-16T10:37:08.219Z,13.78
2023-04-16T10:39:38.977Z,13.35
2023-04-16T10:42:11.628Z,13.84
2023-04-16T10:44:39.994Z,13.88
2023-04-16T10:47:12.938Z,13.74
2023-04-16T10:49:40.863Z,13.77
2023-04-16T10:52:11.727Z,13.53
2023-04-16T10:54:40.275Z,13.72
2023-04-16T10:57:08.880Z,13.68
2023-04-16T10:59:39.883Z,13.62
2023-04-16T11:02:10.292Z,13.52
2023-04-16T11:04:39.537Z,13.39
2023-04-16T11:07:17.282Z,13.60
2023-04-16T11:10:11.958Z,13.58
2023-04-16T11:12:41.406Z,13.13
2023-04-16T11:15:13.902Z,13.01
2023-04-16T11:17:45.565Z,13.12
2023-04-16T11:20:23.953Z,13.14
2023-04-16T11:22:52.605Z,13.24
2023-04-16T11:25:23.620Z,13.10
2023-04-16T11:27:54.626Z,13.37
2023-04-16T11:30:35.465Z,13.20
2023-04-16T11:33:08.018Z,13.51
2023-04-16T11:35:34.822Z,13.55
2023-04-16T11:38:01.788Z,13.42
2023-04-16T11:40:31.834Z,13.58
2023-04-16T11:43:16.054Z,13.78
2023-04-16T11:46:09.961Z,13.75
2023-04-16T11:48:51.423Z,13.46
2023-04-16T11:51:19.307Z,13.61
2023-04-16T11:53:54.191Z,13.72
2023-04-16T11:56:29.661Z,13.88
2023-04-16T11:59:14.004Z,14.04
2023-04-16T12:01:42.474Z,14.01
2023-04-16T12:04:09.708Z,14.14
2023-04-16T12:06:36.601Z,13.77
2023-04-16T12:09:22.510Z,13.91
2023-04-16T12:11:49.202Z,13.69
2023-04-16T12:14:16.660Z,14.12
2023-04-16T12:16:43.429Z,14.03
2023-04-16T12:19:12.752Z,14.48
2023-04-16T12:21:44.404Z,14.24
2023-04-16T12:24:13.618Z,14.47
2023-04-16T12:26:45.202Z,14.31
2023-04-16T12:29:28.372Z,13.88
2023-04-16T12:31:54.972Z,14.45
2023-04-16T12:34:21.939Z,13.92
2023-04-16T12:37:12.344Z,14.59
2023-04-16T12:39:38.917Z,14.02
2023-04-16T12:42:09.733Z,14.46
2023-04-16T12:44:36.249Z,14.25
2023-04-16T12:47:03.026Z,14.67
2023-04-16T12:49:29.589Z,14.12
2023-04-16T12:51:56.417Z,14.30
2023-04-16T12:54:23.791Z,14.13
2023-04-16T12:56:50.567Z,14.64
2023-04-16T12:59:17.787Z,14.15
2023-04-16T13:01:44.404Z,13.84
2023-04-16T13:04:11.173Z,14.29
2023-04-16T13:06:38.384Z,14.47
2023-04-16T13:09:07.890Z,14.76
2023-04-16T13:11:34.799Z,14.85
2023-04-16T13:14:01.524Z,15.10
2023-04-16T13:16:28.532Z,14.79
2023-04-16T13:18:55.443Z,14.37
2023-04-16T13:21:23.822Z,14.71
2023-04-16T13:23:50.663Z,13.98
2023-04-16T13:26:17.446Z,15.01
2023-04-16T13:28:44.066Z,14.72
2023-04-16T13:31:10.682Z,14.94
2023-04-16T13:33:37.932Z,14.81
2023-04-16T13:36:04.820Z,14.72
2023-04-16T13:38:31.370Z,14.71
2023-04-16T13:40:57.966Z,15.49
2023-04-16T13:43:24.510Z,15.04
2023-04-16T13:45:51.916Z,15.17
2023-04-16T13:48:18.450Z,15.29
2023-04-16T13:50:45.343Z,15.43
2023-04-16T13:53:12.233Z,15.00
2023-04-16T13:55:40.160Z,14.97
2023-04-16T13:58:07.241Z,15.27
2023-04-16T14:00:33.915Z,15.41
2023-04-16T14:03:00.801Z,15.64
2023-04-16T14:05:27.480Z,15.05
2023-04-16T14:07:54.856Z,15.74
2023-04-16T14:10:21.497Z,15.76
2023-04-16T14:12:48.196Z,15.56
2023-04-16T14:15:14.979Z,15.30
2023-04-16T14:17:43.912Z,15.91
2023-04-16T14:20:12.775Z,16.09
2023-04-16T14:22:39.854Z,15.69
2023-04-16T14:25:07.200Z,15.37
2023-04-16T14:27:34.163Z,15.55
2023-04-16T14:30:01.018Z,15.59
2023-04-16T14:32:27.805Z,15.17
2023-04-16T14:34:54.467Z,15.00
2023-04-16T14:37:21.628Z,14.58
2023-04-16T14:39:48.497Z,15.02
2023-04-16T14:42:15.015Z,14.98
2023-04-16T14:44:41.809Z,15.54
2023-04-16T14:47:08.608Z,15.34
2023-04-16T14:49:35.287Z,15.26
2023-04-16T14:52:05.746Z,15.55
2023-04-16T14:54:33.434Z,15.56
2023-04-16T14:57:00.422Z,15.27
2023-04-16T14:59:26.968Z,14.93
2023-04-16T15:01:55.859Z,14.97
2023-04-16T15:04:22.875Z,15.00
2023-04-16T15:06:50.350Z,15.26
2023-04-16T15:09:17.071Z,15.57
2023-04-16T15:11:43.713Z,15.25
2023-04-16T15:14:10.638Z,15.16
2023-04-16T15:16:37.624Z,15.26
2023-04-16T15:19:05.157Z,15.28
2023-04-16T15:21:32.004Z,15.06
2023-04-16T15:23:59.542Z,14.97
2023-04-16T15:26:26.375Z,14.93
2023-04-16T15:28:54.368Z,14.81
2023-04-16T15:31:25.042Z,14.80
2023-04-16T15:33:52.485Z,14.96
2023-04-16T15:36:19.006Z,15.29
2023-04-16T15:38:45.953Z,14.82
2023-04-16T15:41:14.348Z,14.92
2023-04-16T15:43:41.198Z,14.79
2023-04-16T15:46:08.799Z,15.27
2023-04-16T15:48:35.377Z,15.05
2023-04-16T15:51:02.190Z,14.65
2023-04-16T15:53:28.871Z,15.23
2023-04-16T15:55:55.504Z,15.21
2023-04-16T15:58:23.010Z,15.39
2023-04-16T16:00:52.815Z,15.11
2023-04-16T16:03:20.016Z,14.80
2023-04-16T16:05:52.062Z,14.86
2023-04-16T16:08:18.880Z,15.54
2023-04-16T16:10:45.481Z,15.47
2023-04-16T16:13:14.033Z,15.44
2023-04-16T16:15:43.849Z,15.53
2023-04-16T16:18:11.041Z,15.29
2023-04-16T16:20:37.773Z,15.37
2023-04-16T16:23:04.415Z,15.16
2023-04-16T16:25:31.044Z,15.28
2023-04-16T16:27:58.792Z,15.09
2023-04-16T16:30:26.363Z,15.22
2023-04-16T16:32:57.666Z,15.46
2023-04-16T16:35:26.203Z,15.22
2023-04-16T16:37:57.251Z,15.25
2023-04-16T16:40:23.973Z,15.30
2023-04-16T16:42:51.048Z,14.60
2023-04-16T16:45:17.710Z,14.47
2023-04-16T16:47:44.380Z,14.53
2023-04-16T16:50:13.062Z,14.59
2023-04-16T16:52:40.090Z,14.28
2023-04-16T16:55:10.805Z,14.15
2023-04-16T16:57:40.619Z,14.62
2023-04-16T17:00:15.522Z,14.10
2023-04-16T17:02:42.683Z,14.45
2023-04-16T17:05:09.944Z,13.96
2023-04-16T17:07:37.078Z,13.95
2023-04-16T17:10:06.725Z,14.01
2023-04-16T17:12:33.819Z,14.22
2023-04-16T17:15:00.753Z,14.13
2023-04-16T17:17:28.696Z,14.21
2023-04-16T17:19:55.613Z,13.93
2023-04-16T17:22:22.160Z,14.35
2023-04-16T17:24:48.878Z,14.23
2023-04-16T17:27:15.449Z,14.24
2023-04-16T17:29:42.689Z,13.89
2023-04-16T17:32:09.441Z,14.22
2023-04-16T17:34:36.178Z,14.06
2023-04-16T17:37:03.083Z,13.68
2023-04-16T17:39:29.940Z,13.58
2023-04-16T17:41:58.737Z,13.74
2023-04-16T17:44:27.361Z,13.88
2023-04-16T17:46:54.025Z,13.62
2023-04-16T17:49:21.646Z,14.00
2023-04-16T17:51:48.959Z,13.91
2023-04-16T17:54:15.552Z,14.06
2023-04-16T17:56:42.274Z,14.13
2023-04-16T17:59:08.815Z,13.97
2023-04-16T18:01:35.549Z,13.90
2023-04-16T18:04:02.661Z,13.92
2023-04-16T18:06:29.628Z,13.79
2023-04-16T18:08:56.736Z,13.89
2023-04-16T18:11:23.441Z,13.97
2023-04-16T18:13:52.382Z,13.69
2023-04-16T18:16:19.242Z,13.56
2023-04-16T18:18:46.217Z,13.63
2023-04-16T18:21:13.238Z,13.50
2023-04-16T18:23:40.147Z,13.42
2023-04-16T18:26:08.484Z,13.47
2023-04-16T18:28:35.976Z,13.42
2023-04-16T18:31:05.521Z,13.32
2023-04-16T18:33:53.357Z,13.49
2023-04-16T18:36:21.066Z,13.31
2023-04-16T18:39:00.071Z,13.28
2023-04-16T18:41:27.517Z,13.47
2023-04-16T18:43:54.082Z,13.34
2023-04-16T18:46:20.840Z,13.16
2023-04-16T18:48:47.423Z,13.27
2023-04-16T18:51:16.082Z,13.24
2023-04-16T18:53:44.184Z,13.24
2023-04-16T18:56:12.539Z,13.16
2023-04-16T18:58:39.108Z,13.08
2023-04-16T19:01:10.771Z,12.88
2023-04-16T19:03:38.046Z,12.90
2023-04-16T19:06:06.333Z,12.81
2023-04-16T19:08:33.049Z,12.70
2023-04-16T19:11:00.311Z,12.77
2023-04-16T19:13:30.293Z,12.78
2023-04-16T19:16:03.024Z,12.72
2023-04-16T19:18:29.829Z,12.63
2023-04-16T19:21:01.064Z,12.86
2023-04-16T19:23:28.921Z,12.63
2023-04-16T19:25:56.725Z,12.53
2023-04-16T19:28:25.435Z,12.32
2023-04-16T19:30:52.919Z,12.59
2023-04-16T19:33:19.671Z,12.57
2023-04-16T19:35:47.517Z,12.36
2023-04-16T19:38:14.380Z,12.39
2023-04-16T19:40:44.650Z,12.40
2023-04-16T19:43:11.362Z,12.43
2023-04-16T19:45:45.326Z,12.37
2023-04-16T19:48:15.242Z,12.33
2023-04-16T19:50:42.722Z,12.54
2023-04-16T19:53:10.821Z,12.55
2023-04-16T19:55:41.763Z,12.64
2023-04-16T19:58:09.073Z,12.53
2023-04-16T20:00:42.632Z,11.94
2023-04-16T20:03:09.904Z,12.13
2023-04-16T20:05:41.804Z,12.41
2023-04-16T20:08:09.382Z,12.49
2023-04-16T20:10:37.240Z,12.60
2023-04-16T20:13:04.864Z,12.67
2023-04-16T20:15:31.652Z,12.38
2023-04-16T20:17:58.750Z,12.35
2023-04-16T20:20:25.654Z,12.45
2023-04-16T20:22:52.622Z,12.50
2023-04-16T20:25:19.372Z,12.57
2023-04-16T20:27:46.651Z,12.34
2023-04-16T20:30:13.892Z,12.59
2023-04-16T20:32:40.485Z,12.48
2023-04-16T20:35:10.597Z,12.60
2023-04-16T20:37:42.079Z,12.57
2023-04-16T20:40:11.066Z,12.53
2023-04-16T20:42:37.772Z,12.61
2023-04-16T20:45:04.830Z,12.47
2023-04-16T20:47:31.702Z,12.49
2023-04-16T20:50:01.813Z,12.55
2023-04-16T20:52:28.291Z,12.46
2023-04-16T20:54:54.815Z,12.50
2023-04-16T20:57:21.512Z,12.27
2023-04-16T20:59:49.261Z,12.37
2023-04-16T21:02:15.970Z,12.31
2023-04-16T21:04:43.061Z,12.47
2023-04-16T21:07:09.711Z,12.26
2023-04-16T21:09:36.677Z,12.32
2023-04-16T21:12:03.370Z,12.68
2023-04-16T21:14:30.320Z,12.34
2023-04-16T21:16:56.861Z,12.41
2023-04-16T21:19:23.657Z,12.50
2023-04-16T21:21:50.204Z,12.53
2023-04-16T21:24:16.744Z,12.37
2023-04-16T21:26:44.410Z,12.31
2023-04-16T21:29:11.224Z,12.14
2023-04-16T21:31:38.127Z,12.33
2023-04-16T21:34:05.130Z,12.41
2023-04-16T21:36:33.559Z,12.17
2023-04-16T21:39:00.526Z,12.36
2023-04-16T21:41:27.230Z,12.47
2023-04-16T21:43:54.022Z,12.43
2023-04-16T21:46:21.215Z,12.42
2023-04-16T21:48:48.417Z,12.43
2023-04-16T21:51:15.894Z,12.32
2023-04-16T21:53:42.438Z,12.38
2023-04-16T21:56:09.104Z,12.40
2023-04-16T21:58:35.625Z,12.42
2023-04-16T22:01:02.304Z,12.47
2023-04-16T22:03:30.397Z,12.46
2023-04-16T22:06:04.298Z,12.43
2023-04-16T22:08:30.994Z,12.35
2023-04-16T22:10:59.468Z,12.46
2023-04-16T22:13:26.767Z,12.46
2023-04-16T22:15:54.882Z,12.10
2023-04-16T22:18:24.479Z,12.16
2023-04-16T22:20:54.552Z,12.10
2023-04-16T22:23:25.408Z,12.14
2023-04-16T22:25:55.890Z,12.23
2023-04-16T22:28:23.328Z,12.05
2023-04-16T22:30:50.365Z,12.09
2023-04-16T22:33:17.062Z,11.87
2023-04-16T22:35:43.668Z,12.00
2023-04-16T22:38:10.758Z,11.75
2023-04-16T22:40:37.886Z,11.78
2023-04-16T22:43:06.276Z,11.78
2023-04-16T22:45:33.792Z,12.13
2023-04-16T22:48:00.422Z,11.86
2023-04-16T22:50:28.484Z,11.67
2023-04-16T22:52:55.016Z,11.99
2023-04-16T22:55:21.673Z,11.87
2023-04-16T22:57:48.397Z,12.08
2023-04-16T23:00:18.307Z,12.07
2023-04-16T23:02:45.490Z,11.97
2023-04-16T23:05:12.299Z,11.93
2023-04-16T23:07:38.898Z,12.06
2023-04-16T23:10:06.242Z,12.03
2023-04-16T23:12:32.906Z,12.02
2023-04-16T23:15:00.953Z,11.86
2023-04-16T23:17:28.217Z,11.98
2023-04-16T23:19:54.805Z,12.27
2023-04-16T23:22:21.511Z,11.76
2023-04-16T23:24:48.135Z,11.88
2023-04-16T23:27:14.720Z,12.10
2023-04-16T23:29:41.230Z,12.24
2023-04-16T23:32:07.970Z,12.25
2023-04-16T23:34:34.434Z,12.23
2023-04-16T23:37:01.003Z,12.19
2023-04-16T23:39:27.591Z,12.14
2023-04-16T23:41:54.106Z,12.15
2023-04-16T23:44:20.680Z,12.08
2023-04-16T23:46:47.296Z,12.34
2023-04-16T23:49:13.939Z,12.23
2023-04-16T23:51:40.695Z,12.31
2023-04-16T23:54:07.404Z,12.31
2023-04-16T23:56:34.064Z,12.18
2023-04-16T23:59:00.749Z,12.29
